sensor_id;sensor_type;location;lat;lon;timestamp;P1;durP1;ratioP1;P2;durP2;ratioP2
5987;SDS011;3021;51.000;6.980;2022-10-31T00:02:18;16.92;;;9.07;;
5987;SDS011;3021;51.000;6.980;2022-10-31T00:04:43;19.40;;;9.23;;
5987;SDS011;3021;51.000;6.980;2022-10-31T00:07:08;16.98;;;8.82;;
5987;SDS011;3021;51.000;6.980;2022-10-31T00:09:34;19.25;;;9.30;;
5987;SDS011;3021;51.000;6.980;2022-10-31T00:11:59;19.60;;;8.52;;
5987;SDS011;3021;51.000;6.980;2022-10-31T00:14:24;20.08;;;8.63;;
5987;SDS011;3021;51.000;6.980;2022-10-31T00:16:49;18.75;;;8.82;;
5987;SDS011;3021;51.000;6.980;2022-10-31T00:19:15;20.45;;;8.65;;
5987;SDS011;3021;51.000;6.980;2022-10-31T00:21:40;17.40;;;8.60;;
5987;SDS011;3021;51.000;6.980;2022-10-31T00:24:06;17.10;;;8.52;;
5987;SDS011;3021;51.000;6.980;2022-10-31T00:26:31;22.73;;;8.77;;
5987;SDS011;3021;51.000;6.980;2022-10-31T00:28:57;17.63;;;8.48;;
5987;SDS011;3021;51.000;6.980;2022-10-31T00:31:23;16.02;;;8.82;;
5987;SDS011;3021;51.000;6.980;2022-10-31T00:33:48;17.20;;;9.40;;
5987;SDS011;3021;51.000;6.980;2022-10-31T00:36:14;20.73;;;9.05;;
5987;SDS011;3021;51.000;6.980;2022-10-31T00:38:41;21.05;;;9.43;;
5987;SDS011;3021;51.000;6.980;2022-10-31T00:41:07;16.83;;;9.13;;
5987;SDS011;3021;51.000;6.980;2022-10-31T00:43:33;17.58;;;8.95;;
5987;SDS011;3021;51.000;6.980;2022-10-31T00:45:58;14.02;;;8.32;;
5987;SDS011;3021;51.000;6.980;2022-10-31T00:48:23;18.17;;;9.02;;
5987;SDS011;3021;51.000;6.980;2022-10-31T00:50:49;20.52;;;9.07;;
5987;SDS011;3021;51.000;6.980;2022-10-31T00:53:14;22.67;;;9.02;;
5987;SDS011;3021;51.000;6.980;2022-10-31T00:55:39;17.13;;;8.70;;
5987;SDS011;3021;51.000;6.980;2022-10-31T00:58:05;20.48;;;9.13;;
5987;SDS011;3021;51.000;6.980;2022-10-31T01:00:30;14.63;;;8.30;;
5987;SDS011;3021;51.000;6.980;2022-10-31T01:02:56;18.88;;;9.45;;
5987;SDS011;3021;51.000;6.980;2022-10-31T01:05:21;23.52;;;9.27;;
5987;SDS011;3021;51.000;6.980;2022-10-31T01:07:46;22.27;;;9.05;;
5987;SDS011;3021;51.000;6.980;2022-10-31T01:10:12;17.67;;;8.98;;
5987;SDS011;3021;51.000;6.980;2022-10-31T01:12:41;18.42;;;8.52;;
5987;SDS011;3021;51.000;6.980;2022-10-31T01:15:10;19.63;;;10.20;;
5987;SDS011;3021;51.000;6.980;2022-10-31T01:17:37;22.08;;;10.20;;
5987;SDS011;3021;51.000;6.980;2022-10-31T01:20:04;21.80;;;8.48;;
5987;SDS011;3021;51.000;6.980;2022-10-31T01:22:30;21.95;;;8.40;;
5987;SDS011;3021;51.000;6.980;2022-10-31T01:24:56;19.00;;;9.00;;
5987;SDS011;3021;51.000;6.980;2022-10-31T01:27:21;19.65;;;9.18;;
5987;SDS011;3021;51.000;6.980;2022-10-31T01:29:46;19.05;;;8.80;;
5987;SDS011;3021;51.000;6.980;2022-10-31T01:32:12;18.05;;;9.82;;
5987;SDS011;3021;51.000;6.980;2022-10-31T01:34:37;15.35;;;8.45;;
5987;SDS011;3021;51.000;6.980;2022-10-31T01:37:02;22.33;;;9.05;;
5987;SDS011;3021;51.000;6.980;2022-10-31T01:39:28;15.90;;;8.90;;
5987;SDS011;3021;51.000;6.980;2022-10-31T01:41:53;15.75;;;8.52;;
5987;SDS011;3021;51.000;6.980;2022-10-31T01:49:13;16.95;;;8.98;;
5987;SDS011;3021;51.000;6.980;2022-10-31T01:51:50;18.95;;;9.43;;
5987;SDS011;3021;51.000;6.980;2022-10-31T01:54:44;18.08;;;8.93;;
5987;SDS011;3021;51.000;6.980;2022-10-31T01:57:13;21.20;;;10.00;;
5987;SDS011;3021;51.000;6.980;2022-10-31T01:59:41;18.05;;;9.25;;
5987;SDS011;3021;51.000;6.980;2022-10-31T02:02:14;17.67;;;9.20;;
5987;SDS011;3021;51.000;6.980;2022-10-31T02:04:43;18.50;;;8.85;;
5987;SDS011;3021;51.000;6.980;2022-10-31T02:07:12;16.58;;;8.48;;
5987;SDS011;3021;51.000;6.980;2022-10-31T02:09:48;22.63;;;8.75;;
5987;SDS011;3021;51.000;6.980;2022-10-31T02:12:16;17.17;;;8.82;;
5987;SDS011;3021;51.000;6.980;2022-10-31T02:14:43;18.35;;;9.57;;
5987;SDS011;3021;51.000;6.980;2022-10-31T02:17:08;25.98;;;9.40;;
5987;SDS011;3021;51.000;6.980;2022-10-31T02:19:54;18.67;;;8.50;;
5987;SDS011;3021;51.000;6.980;2022-10-31T02:34:24;16.35;;;9.30;;
5987;SDS011;3021;51.000;6.980;2022-10-31T02:45:09;14.82;;;7.72;;
5987;SDS011;3021;51.000;6.980;2022-10-31T02:47:39;12.88;;;7.78;;
5987;SDS011;3021;51.000;6.980;2022-10-31T02:50:18;18.90;;;8.32;;
5987;SDS011;3021;51.000;6.980;2022-10-31T02:52:49;18.40;;;8.65;;
5987;SDS011;3021;51.000;6.980;2022-10-31T02:57:48;18.73;;;9.05;;
5987;SDS011;3021;51.000;6.980;2022-10-31T03:00:15;19.60;;;8.45;;
5987;SDS011;3021;51.000;6.980;2022-10-31T03:06:12;19.15;;;8.70;;
5987;SDS011;3021;51.000;6.980;2022-10-31T03:08:09;17.48;;;8.55;;
5987;SDS011;3021;51.000;6.980;2022-10-31T03:10:45;14.93;;;8.80;;
5987;SDS011;3021;51.000;6.980;2022-10-31T03:15:48;15.57;;;7.80;;
5987;SDS011;3021;51.000;6.980;2022-10-31T03:20:57;15.80;;;8.98;;
5987;SDS011;3021;51.000;6.980;2022-10-31T03:23:29;17.08;;;7.78;;
5987;SDS011;3021;51.000;6.980;2022-10-31T03:25:56;17.45;;;8.13;;
5987;SDS011;3021;51.000;6.980;2022-10-31T03:28:30;15.32;;;8.18;;
5987;SDS011;3021;51.000;6.980;2022-10-31T03:31:00;15.55;;;7.88;;
5987;SDS011;3021;51.000;6.980;2022-10-31T03:33:30;11.82;;;7.75;;
5987;SDS011;3021;51.000;6.980;2022-10-31T03:35:59;13.18;;;8.52;;
5987;SDS011;3021;51.000;6.980;2022-10-31T03:38:29;19.48;;;7.82;;
5987;SDS011;3021;51.000;6.980;2022-10-31T03:40:57;18.50;;;9.10;;
5987;SDS011;3021;51.000;6.980;2022-10-31T03:43:27;18.05;;;8.02;;
5987;SDS011;3021;51.000;6.980;2022-10-31T03:45:57;18.50;;;8.85;;
5987;SDS011;3021;51.000;6.980;2022-10-31T03:48:23;16.98;;;8.63;;
5987;SDS011;3021;51.000;6.980;2022-10-31T03:50:52;18.85;;;8.50;;
5987;SDS011;3021;51.000;6.980;2022-10-31T03:53:25;18.98;;;8.05;;
5987;SDS011;3021;51.000;6.980;2022-10-31T03:56:01;15.02;;;7.85;;
5987;SDS011;3021;51.000;6.980;2022-10-31T03:58:35;16.75;;;8.65;;
5987;SDS011;3021;51.000;6.980;2022-10-31T04:01:08;14.68;;;8.00;;
5987;SDS011;3021;51.000;6.980;2022-10-31T04:03:38;27.38;;;9.82;;
5987;SDS011;3021;51.000;6.980;2022-10-31T04:06:07;23.88;;;8.85;;
5987;SDS011;3021;51.000;6.980;2022-10-31T04:08:40;20.13;;;9.20;;
5987;SDS011;3021;51.000;6.980;2022-10-31T04:11:10;22.05;;;8.73;;
5987;SDS011;3021;51.000;6.980;2022-10-31T04:13:38;18.92;;;8.52;;
5987;SDS011;3021;51.000;6.980;2022-10-31T04:16:07;17.50;;;8.75;;
5987;SDS011;3021;51.000;6.980;2022-10-31T04:18:33;14.98;;;8.32;;
5987;SDS011;3021;51.000;6.980;2022-10-31T04:21:00;20.55;;;8.88;;
5987;SDS011;3021;51.000;6.980;2022-10-31T04:23:28;15.02;;;8.15;;
5987;SDS011;3021;51.000;6.980;2022-10-31T04:25:54;19.55;;;8.40;;
5987;SDS011;3021;51.000;6.980;2022-10-31T04:28:20;16.80;;;8.85;;
5987;SDS011;3021;51.000;6.980;2022-10-31T04:30:45;15.70;;;8.13;;
5987;SDS011;3021;51.000;6.980;2022-10-31T04:33:11;17.52;;;8.35;;
5987;SDS011;3021;51.000;6.980;2022-10-31T04:35:36;15.15;;;8.45;;
5987;SDS011;3021;51.000;6.980;2022-10-31T04:38:01;15.63;;;7.53;;
5987;SDS011;3021;51.000;6.980;2022-10-31T04:40:27;18.35;;;8.32;;
5987;SDS011;3021;51.000;6.980;2022-10-31T04:42:52;15.10;;;7.88;;
5987;SDS011;3021;51.000;6.980;2022-10-31T04:45:17;21.02;;;9.52;;
5987;SDS011;3021;51.000;6.980;2022-10-31T04:47:44;20.83;;;9.27;;
5987;SDS011;3021;51.000;6.980;2022-10-31T04:50:09;14.25;;;9.13;;
5987;SDS011;3021;51.000;6.980;2022-10-31T04:52:41;16.70;;;8.57;;
5987;SDS011;3021;51.000;6.980;2022-10-31T04:55:07;18.95;;;8.85;;
5987;SDS011;3021;51.000;6.980;2022-10-31T04:57:39;14.82;;;8.43;;
5987;SDS011;3021;51.000;6.980;2022-10-31T05:00:06;15.75;;;7.80;;
5987;SDS011;3021;51.000;6.980;2022-10-31T05:02:31;18.65;;;7.82;;
5987;SDS011;3021;51.000;6.980;2022-10-31T05:04:57;24.10;;;9.00;;
5987;SDS011;3021;51.000;6.980;2022-10-31T05:07:22;15.93;;;8.15;;
5987;SDS011;3021;51.000;6.980;2022-10-31T05:09:48;16.67;;;8.10;;
5987;SDS011;3021;51.000;6.980;2022-10-31T05:12:13;18.50;;;8.38;;
5987;SDS011;3021;51.000;6.980;2022-10-31T05:14:41;19.27;;;8.80;;
5987;SDS011;3021;51.000;6.980;2022-10-31T05:17:06;16.80;;;8.35;;
5987;SDS011;3021;51.000;6.980;2022-10-31T05:19:32;18.38;;;8.68;;
5987;SDS011;3021;51.000;6.980;2022-10-31T05:21:57;16.20;;;8.85;;
5987;SDS011;3021;51.000;6.980;2022-10-31T05:24:22;15.82;;;8.32;;
5987;SDS011;3021;51.000;6.980;2022-10-31T05:26:48;17.25;;;8.30;;
5987;SDS011;3021;51.000;6.980;2022-10-31T05:29:14;15.68;;;8.93;;
5987;SDS011;3021;51.000;6.980;2022-10-31T05:31:39;16.63;;;8.98;;
5987;SDS011;3021;51.000;6.980;2022-10-31T05:34:04;17.17;;;7.78;;
5987;SDS011;3021;51.000;6.980;2022-10-31T05:36:30;18.27;;;8.55;;
5987;SDS011;3021;51.000;6.980;2022-10-31T05:38:55;16.30;;;8.20;;
5987;SDS011;3021;51.000;6.980;2022-10-31T05:41:20;17.55;;;8.30;;
5987;SDS011;3021;51.000;6.980;2022-10-31T05:43:45;15.82;;;9.40;;
5987;SDS011;3021;51.000;6.980;2022-10-31T05:46:11;16.67;;;8.27;;
5987;SDS011;3021;51.000;6.980;2022-10-31T05:48:36;16.65;;;9.38;;
5987;SDS011;3021;51.000;6.980;2022-10-31T05:51:01;19.88;;;9.23;;
5987;SDS011;3021;51.000;6.980;2022-10-31T05:53:27;25.92;;;9.35;;
5987;SDS011;3021;51.000;6.980;2022-10-31T05:55:52;31.08;;;10.93;;
5987;SDS011;3021;51.000;6.980;2022-10-31T05:58:17;20.73;;;9.70;;
5987;SDS011;3021;51.000;6.980;2022-10-31T06:00:43;22.38;;;9.88;;
5987;SDS011;3021;51.000;6.980;2022-10-31T06:03:08;19.95;;;8.85;;
5987;SDS011;3021;51.000;6.980;2022-10-31T06:05:34;21.75;;;9.40;;
5987;SDS011;3021;51.000;6.980;2022-10-31T06:07:59;20.42;;;9.48;;
5987;SDS011;3021;51.000;6.980;2022-10-31T06:10:25;20.25;;;9.95;;
5987;SDS011;3021;51.000;6.980;2022-10-31T06:12:51;21.45;;;10.05;;
5987;SDS011;3021;51.000;6.980;2022-10-31T06:15:16;18.20;;;8.70;;
5987;SDS011;3021;51.000;6.980;2022-10-31T06:17:42;16.88;;;9.45;;
5987;SDS011;3021;51.000;6.980;2022-10-31T06:20:08;27.10;;;10.35;;
5987;SDS011;3021;51.000;6.980;2022-10-31T06:22:34;23.40;;;10.23;;
5987;SDS011;3021;51.000;6.980;2022-10-31T06:24:59;20.08;;;10.02;;
5987;SDS011;3021;51.000;6.980;2022-10-31T06:27:25;21.00;;;10.98;;
5987;SDS011;3021;51.000;6.980;2022-10-31T06:29:50;21.02;;;9.88;;
5987;SDS011;3021;51.000;6.980;2022-10-31T06:32:16;18.60;;;10.10;;
5987;SDS011;3021;51.000;6.980;2022-10-31T06:34:42;16.60;;;9.70;;
5987;SDS011;3021;51.000;6.980;2022-10-31T06:37:08;21.50;;;9.95;;
5987;SDS011;3021;51.000;6.980;2022-10-31T06:39:35;18.50;;;10.32;;
5987;SDS011;3021;51.000;6.980;2022-10-31T06:42:00;22.58;;;10.85;;
5987;SDS011;3021;51.000;6.980;2022-10-31T06:44:26;19.95;;;10.60;;
5987;SDS011;3021;51.000;6.980;2022-10-31T06:46:51;24.42;;;10.27;;
5987;SDS011;3021;51.000;6.980;2022-10-31T06:49:17;16.25;;;9.20;;
5987;SDS011;3021;51.000;6.980;2022-10-31T06:51:42;20.02;;;10.55;;
5987;SDS011;3021;51.000;6.980;2022-10-31T06:54:07;22.77;;;11.45;;
5987;SDS011;3021;51.000;6.980;2022-10-31T06:56:33;21.95;;;10.30;;
5987;SDS011;3021;51.000;6.980;2022-10-31T06:58:58;20.30;;;10.25;;
5987;SDS011;3021;51.000;6.980;2022-10-31T07:01:24;23.90;;;10.48;;
5987;SDS011;3021;51.000;6.980;2022-10-31T07:03:49;21.05;;;10.55;;
5987;SDS011;3021;51.000;6.980;2022-10-31T07:06:14;23.08;;;9.88;;
5987;SDS011;3021;51.000;6.980;2022-10-31T07:08:40;19.27;;;9.90;;
5987;SDS011;3021;51.000;6.980;2022-10-31T07:11:05;17.52;;;9.65;;
5987;SDS011;3021;51.000;6.980;2022-10-31T07:13:30;24.38;;;9.77;;
5987;SDS011;3021;51.000;6.980;2022-10-31T07:15:59;19.13;;;9.88;;
5987;SDS011;3021;51.000;6.980;2022-10-31T07:18:26;21.60;;;10.85;;
5987;SDS011;3021;51.000;6.980;2022-10-31T07:20:52;20.27;;;10.18;;
5987;SDS011;3021;51.000;6.980;2022-10-31T07:23:18;24.85;;;11.23;;
5987;SDS011;3021;51.000;6.980;2022-10-31T07:25:44;26.15;;;10.73;;
5987;SDS011;3021;51.000;6.980;2022-10-31T07:28:09;22.17;;;10.50;;
5987;SDS011;3021;51.000;6.980;2022-10-31T07:30:35;13.43;;;8.82;;
5987;SDS011;3021;51.000;6.980;2022-10-31T07:33:01;22.48;;;9.40;;
5987;SDS011;3021;51.000;6.980;2022-10-31T07:35:27;21.75;;;8.98;;
5987;SDS011;3021;51.000;6.980;2022-10-31T07:37:53;24.38;;;9.32;;
5987;SDS011;3021;51.000;6.980;2022-10-31T07:40:19;17.38;;;9.20;;
5987;SDS011;3021;51.000;6.980;2022-10-31T07:42:47;16.42;;;8.27;;
5987;SDS011;3021;51.000;6.980;2022-10-31T07:45:20;17.40;;;9.32;;
5987;SDS011;3021;51.000;6.980;2022-10-31T07:47:49;20.10;;;9.93;;
5987;SDS011;3021;51.000;6.980;2022-10-31T07:50:23;23.83;;;8.18;;
5987;SDS011;3021;51.000;6.980;2022-10-31T07:52:58;15.05;;;8.68;;
5987;SDS011;3021;51.000;6.980;2022-10-31T07:55:27;18.55;;;9.07;;
5987;SDS011;3021;51.000;6.980;2022-10-31T07:58:00;25.42;;;9.80;;
5987;SDS011;3021;51.000;6.980;2022-10-31T08:00:27;29.45;;;10.38;;
5987;SDS011;3021;51.000;6.980;2022-10-31T08:03:11;20.20;;;9.88;;
5987;SDS011;3021;51.000;6.980;2022-10-31T08:05:38;24.92;;;10.18;;
5987;SDS011;3021;51.000;6.980;2022-10-31T08:08:06;17.70;;;9.20;;
5987;SDS011;3021;51.000;6.980;2022-10-31T08:10:32;21.20;;;9.45;;
5987;SDS011;3021;51.000;6.980;2022-10-31T08:12:59;19.67;;;10.20;;
5987;SDS011;3021;51.000;6.980;2022-10-31T08:15:26;20.98;;;9.80;;
5987;SDS011;3021;51.000;6.980;2022-10-31T08:17:52;23.33;;;10.48;;
5987;SDS011;3021;51.000;6.980;2022-10-31T08:20:17;20.60;;;10.20;;
5987;SDS011;3021;51.000;6.980;2022-10-31T08:22:51;21.60;;;9.35;;
5987;SDS011;3021;51.000;6.980;2022-10-31T08:25:18;17.30;;;10.10;;
5987;SDS011;3021;51.000;6.980;2022-10-31T08:27:43;19.38;;;9.55;;
5987;SDS011;3021;51.000;6.980;2022-10-31T08:30:14;23.13;;;10.27;;
5987;SDS011;3021;51.000;6.980;2022-10-31T08:32:39;19.23;;;9.63;;
5987;SDS011;3021;51.000;6.980;2022-10-31T08:35:04;22.30;;;9.55;;
5987;SDS011;3021;51.000;6.980;2022-10-31T08:37:30;19.92;;;9.88;;
5987;SDS011;3021;51.000;6.980;2022-10-31T08:39:55;22.48;;;9.75;;
5987;SDS011;3021;51.000;6.980;2022-10-31T08:42:20;17.52;;;9.55;;
5987;SDS011;3021;51.000;6.980;2022-10-31T08:44:45;22.42;;;10.45;;
5987;SDS011;3021;51.000;6.980;2022-10-31T08:47:11;23.48;;;10.07;;
5987;SDS011;3021;51.000;6.980;2022-10-31T08:49:36;26.42;;;10.88;;
5987;SDS011;3021;51.000;6.980;2022-10-31T08:52:01;22.27;;;10.57;;
5987;SDS011;3021;51.000;6.980;2022-10-31T08:54:27;20.83;;;9.90;;
5987;SDS011;3021;51.000;6.980;2022-10-31T08:56:55;18.65;;;10.30;;
5987;SDS011;3021;51.000;6.980;2022-10-31T08:59:21;17.52;;;10.13;;
5987;SDS011;3021;51.000;6.980;2022-10-31T09:01:46;19.35;;;10.15;;
5987;SDS011;3021;51.000;6.980;2022-10-31T09:04:12;18.02;;;10.02;;
5987;SDS011;3021;51.000;6.980;2022-10-31T09:06:37;22.15;;;10.18;;
5987;SDS011;3021;51.000;6.980;2022-10-31T09:09:02;20.63;;;10.40;;
5987;SDS011;3021;51.000;6.980;2022-10-31T09:11:29;22.42;;;9.23;;
5987;SDS011;3021;51.000;6.980;2022-10-31T09:13:55;22.02;;;9.70;;
5987;SDS011;3021;51.000;6.980;2022-10-31T09:16:20;15.38;;;9.05;;
5987;SDS011;3021;51.000;6.980;2022-10-31T09:18:45;23.80;;;10.35;;
5987;SDS011;3021;51.000;6.980;2022-10-31T09:21:11;21.83;;;10.35;;
5987;SDS011;3021;51.000;6.980;2022-10-31T09:23:36;17.52;;;9.85;;
5987;SDS011;3021;51.000;6.980;2022-10-31T09:26:02;23.42;;;9.40;;
5987;SDS011;3021;51.000;6.980;2022-10-31T09:28:28;21.45;;;9.15;;
5987;SDS011;3021;51.000;6.980;2022-10-31T09:30:54;19.65;;;9.43;;
5987;SDS011;3021;51.000;6.980;2022-10-31T09:33:19;25.83;;;9.60;;
5987;SDS011;3021;51.000;6.980;2022-10-31T09:35:45;19.63;;;9.90;;
5987;SDS011;3021;51.000;6.980;2022-10-31T09:38:15;25.15;;;9.77;;
5987;SDS011;3021;51.000;6.980;2022-10-31T09:49:05;23.40;;;9.45;;
5987;SDS011;3021;51.000;6.980;2022-10-31T09:51:44;22.50;;;9.73;;
5987;SDS011;3021;51.000;6.980;2022-10-31T09:54:16;17.55;;;9.07;;
5987;SDS011;3021;51.000;6.980;2022-10-31T09:56:45;23.42;;;8.18;;
5987;SDS011;3021;51.000;6.980;2022-10-31T09:59:12;19.13;;;8.30;;
5987;SDS011;3021;51.000;6.980;2022-10-31T10:01:51;13.27;;;7.50;;
5987;SDS011;3021;51.000;6.980;2022-10-31T10:09:56;16.17;;;7.70;;
5987;SDS011;3021;51.000;6.980;2022-10-31T10:15:31;16.75;;;6.45;;
5987;SDS011;3021;51.000;6.980;2022-10-31T10:18:14;12.52;;;6.28;;
5987;SDS011;3021;51.000;6.980;2022-10-31T10:26:51;15.88;;;6.00;;
5987;SDS011;3021;51.000;6.980;2022-10-31T10:32:14;13.43;;;6.57;;
5987;SDS011;3021;51.000;6.980;2022-10-31T10:34:49;20.92;;;6.30;;
5987;SDS011;3021;51.000;6.980;2022-10-31T10:37:23;13.52;;;6.15;;
5987;SDS011;3021;51.000;6.980;2022-10-31T10:39:51;11.77;;;6.05;;
5987;SDS011;3021;51.000;6.980;2022-10-31T10:42:21;13.23;;;6.18;;
5987;SDS011;3021;51.000;6.980;2022-10-31T10:45:15;13.93;;;5.68;;
5987;SDS011;3021;51.000;6.980;2022-10-31T10:48:14;13.77;;;6.30;;
5987;SDS011;3021;51.000;6.980;2022-10-31T10:50:48;12.10;;;6.05;;
5987;SDS011;3021;51.000;6.980;2022-10-31T11:00:56;13.13;;;5.73;;
5987;SDS011;3021;51.000;6.980;2022-10-31T11:03:21;18.77;;;6.05;;
5987;SDS011;3021;51.000;6.980;2022-10-31T11:08:23;12.52;;;5.65;;
5987;SDS011;3021;51.000;6.980;2022-10-31T11:13:53;14.48;;;6.30;;
5987;SDS011;3021;51.000;6.980;2022-10-31T11:18:52;15.50;;;5.95;;
5987;SDS011;3021;51.000;6.980;2022-10-31T11:26:40;18.13;;;6.47;;
5987;SDS011;3021;51.000;6.980;2022-10-31T11:29:21;13.55;;;6.05;;
5987;SDS011;3021;51.000;6.980;2022-10-31T11:31:50;17.02;;;6.00;;
5987;SDS011;3021;51.000;6.980;2022-10-31T11:34:26;14.95;;;6.20;;
5987;SDS011;3021;51.000;6.980;2022-10-31T11:36:57;12.70;;;5.80;;
5987;SDS011;3021;51.000;6.980;2022-10-31T11:39:27;13.98;;;6.28;;
5987;SDS011;3021;51.000;6.980;2022-10-31T11:41:53;15.38;;;6.00;;
5987;SDS011;3021;51.000;6.980;2022-10-31T11:44:24;14.85;;;6.15;;
5987;SDS011;3021;51.000;6.980;2022-10-31T11:46:54;14.48;;;6.30;;
5987;SDS011;3021;51.000;6.980;2022-10-31T11:51:57;13.53;;;6.20;;
5987;SDS011;3021;51.000;6.980;2022-10-31T11:54:28;10.45;;;5.95;;
5987;SDS011;3021;51.000;6.980;2022-10-31T11:56:57;15.07;;;5.60;;
5987;SDS011;3021;51.000;6.980;2022-10-31T11:59:27;13.95;;;5.65;;
5987;SDS011;3021;51.000;6.980;2022-10-31T12:01:56;15.77;;;5.78;;
5987;SDS011;3021;51.000;6.980;2022-10-31T12:04:24;13.82;;;6.10;;
5987;SDS011;3021;51.000;6.980;2022-10-31T12:06:56;17.65;;;7.40;;
5987;SDS011;3021;51.000;6.980;2022-10-31T12:12:56;18.23;;;5.57;;
5987;SDS011;3021;51.000;6.980;2022-10-31T12:15:30;11.35;;;5.70;;
5987;SDS011;3021;51.000;6.980;2022-10-31T12:23:25;16.15;;;6.05;;
5987;SDS011;3021;51.000;6.980;2022-10-31T12:29:24;13.32;;;5.55;;
5987;SDS011;3021;51.000;6.980;2022-10-31T12:39:40;17.20;;;6.03;;
5987;SDS011;3021;51.000;6.980;2022-10-31T12:50:28;13.35;;;5.13;;
5987;SDS011;3021;51.000;6.980;2022-10-31T12:58:35;14.68;;;5.75;;
5987;SDS011;3021;51.000;6.980;2022-10-31T13:01:50;15.38;;;5.43;;
5987;SDS011;3021;51.000;6.980;2022-10-31T13:03:52;16.42;;;5.78;;
5987;SDS011;3021;51.000;6.980;2022-10-31T13:06:29;10.95;;;4.93;;
5987;SDS011;3021;51.000;6.980;2022-10-31T13:09:13;15.27;;;4.97;;
5987;SDS011;3021;51.000;6.980;2022-10-31T13:11:48;13.40;;;4.95;;
5987;SDS011;3021;51.000;6.980;2022-10-31T13:16:54;16.75;;;6.10;;
5987;SDS011;3021;51.000;6.980;2022-10-31T13:19:32;11.52;;;4.32;;
5987;SDS011;3021;51.000;6.980;2022-10-31T13:25:02;13.88;;;5.18;;
5987;SDS011;3021;51.000;6.980;2022-10-31T13:27:42;13.90;;;4.88;;
5987;SDS011;3021;51.000;6.980;2022-10-31T13:30:18;14.48;;;4.82;;
5987;SDS011;3021;51.000;6.980;2022-10-31T13:35:26;11.82;;;4.90;;
5987;SDS011;3021;51.000;6.980;2022-10-31T13:38:20;16.50;;;5.18;;
5987;SDS011;3021;51.000;6.980;2022-10-31T13:41:03;11.05;;;4.63;;
5987;SDS011;3021;51.000;6.980;2022-10-31T13:44:00;11.52;;;4.63;;
5987;SDS011;3021;51.000;6.980;2022-10-31T13:48:57;12.63;;;4.93;;
5987;SDS011;3021;51.000;6.980;2022-10-31T13:51:27;12.77;;;4.60;;
5987;SDS011;3021;51.000;6.980;2022-10-31T13:56:21;16.52;;;4.95;;
5987;SDS011;3021;51.000;6.980;2022-10-31T13:59:35;14.60;;;5.97;;
5987;SDS011;3021;51.000;6.980;2022-10-31T14:01:35;14.05;;;4.53;;
5987;SDS011;3021;51.000;6.980;2022-10-31T14:06:48;14.45;;;4.55;;
5987;SDS011;3021;51.000;6.980;2022-10-31T14:09:20;15.43;;;5.15;;
5987;SDS011;3021;51.000;6.980;2022-10-31T14:11:51;14.65;;;5.28;;
5987;SDS011;3021;51.000;6.980;2022-10-31T14:14:18;14.40;;;4.88;;
5987;SDS011;3021;51.000;6.980;2022-10-31T14:16:45;15.90;;;5.15;;
5987;SDS011;3021;51.000;6.980;2022-10-31T14:19:18;13.13;;;4.72;;
5987;SDS011;3021;51.000;6.980;2022-10-31T14:21:48;15.45;;;5.07;;
5987;SDS011;3021;51.000;6.980;2022-10-31T14:27:03;19.73;;;5.22;;
5987;SDS011;3021;51.000;6.980;2022-10-31T14:29:43;12.95;;;4.68;;
5987;SDS011;3021;51.000;6.980;2022-10-31T14:34:39;14.75;;;5.32;;
5987;SDS011;3021;51.000;6.980;2022-10-31T14:39:38;14.48;;;4.53;;
5987;SDS011;3021;51.000;6.980;2022-10-31T14:47:32;13.73;;;5.38;;
5987;SDS011;3021;51.000;6.980;2022-10-31T14:52:35;14.32;;;5.15;;
5987;SDS011;3021;51.000;6.980;2022-10-31T14:55:02;19.60;;;4.53;;
5987;SDS011;3021;51.000;6.980;2022-10-31T14:57:33;9.48;;;4.40;;
5987;SDS011;3021;51.000;6.980;2022-10-31T15:00:03;13.85;;;5.10;;
5987;SDS011;3021;51.000;6.980;2022-10-31T15:05:40;10.68;;;4.45;;
5987;SDS011;3021;51.000;6.980;2022-10-31T15:08:13;12.43;;;4.47;;
5987;SDS011;3021;51.000;6.980;2022-10-31T15:10:50;8.48;;;4.85;;
5987;SDS011;3021;51.000;6.980;2022-10-31T15:13:20;12.85;;;4.30;;
5987;SDS011;3021;51.000;6.980;2022-10-31T15:15:47;12.68;;;4.90;;
5987;SDS011;3021;51.000;6.980;2022-10-31T15:18:16;13.07;;;4.85;;
5987;SDS011;3021;51.000;6.980;2022-10-31T15:20:44;12.15;;;4.80;;
5987;SDS011;3021;51.000;6.980;2022-10-31T15:23:20;12.00;;;4.72;;
5987;SDS011;3021;51.000;6.980;2022-10-31T15:25:50;10.20;;;4.72;;
5987;SDS011;3021;51.000;6.980;2022-10-31T15:28:23;13.35;;;4.43;;
5987;SDS011;3021;51.000;6.980;2022-10-31T15:30:50;18.38;;;4.45;;
5987;SDS011;3021;51.000;6.980;2022-10-31T15:33:21;13.75;;;4.95;;
5987;SDS011;3021;51.000;6.980;2022-10-31T15:35:55;11.52;;;4.00;;
5987;SDS011;3021;51.000;6.980;2022-10-31T15:38:21;13.15;;;4.18;;
5987;SDS011;3021;51.000;6.980;2022-10-31T15:40:54;13.75;;;4.00;;
5987;SDS011;3021;51.000;6.980;2022-10-31T15:43:22;14.10;;;4.45;;
5987;SDS011;3021;51.000;6.980;2022-10-31T15:45:47;9.93;;;4.13;;
5987;SDS011;3021;51.000;6.980;2022-10-31T15:48:17;7.22;;;3.80;;
5987;SDS011;3021;51.000;6.980;2022-10-31T15:50:51;12.48;;;4.40;;
5987;SDS011;3021;51.000;6.980;2022-10-31T15:53:20;13.57;;;4.47;;
5987;SDS011;3021;51.000;6.980;2022-10-31T15:56:11;13.88;;;4.43;;
5987;SDS011;3021;51.000;6.980;2022-10-31T15:58:43;12.35;;;4.30;;
5987;SDS011;3021;51.000;6.980;2022-10-31T16:01:24;8.77;;;3.67;;
5987;SDS011;3021;51.000;6.980;2022-10-31T16:06:37;10.20;;;4.43;;
5987;SDS011;3021;51.000;6.980;2022-10-31T16:09:04;11.82;;;3.63;;
5987;SDS011;3021;51.000;6.980;2022-10-31T16:11:46;10.80;;;3.88;;
5987;SDS011;3021;51.000;6.980;2022-10-31T16:16:41;11.00;;;3.93;;
5987;SDS011;3021;51.000;6.980;2022-10-31T16:19:19;16.30;;;4.60;;
5987;SDS011;3021;51.000;6.980;2022-10-31T16:21:48;18.33;;;5.28;;
5987;SDS011;3021;51.000;6.980;2022-10-31T16:24:18;16.10;;;4.90;;
5987;SDS011;3021;51.000;6.980;2022-10-31T16:27:15;12.45;;;4.13;;
5987;SDS011;3021;51.000;6.980;2022-10-31T16:29:45;14.18;;;4.10;;
5987;SDS011;3021;51.000;6.980;2022-10-31T16:32:27;12.75;;;4.80;;
5987;SDS011;3021;51.000;6.980;2022-10-31T16:39:58;14.07;;;4.13;;
5987;SDS011;3021;51.000;6.980;2022-10-31T16:42:23;11.57;;;4.30;;
5987;SDS011;3021;51.000;6.980;2022-10-31T16:44:49;15.25;;;4.47;;
5987;SDS011;3021;51.000;6.980;2022-10-31T16:47:15;12.88;;;4.65;;
5987;SDS011;3021;51.000;6.980;2022-10-31T16:49:42;13.23;;;4.32;;
5987;SDS011;3021;51.000;6.980;2022-10-31T16:52:08;14.65;;;4.53;;
5987;SDS011;3021;51.000;6.980;2022-10-31T16:54:33;15.05;;;4.63;;
5987;SDS011;3021;51.000;6.980;2022-10-31T16:56:59;10.00;;;4.20;;
5987;SDS011;3021;51.000;6.980;2022-10-31T16:59:26;10.02;;;4.00;;
5987;SDS011;3021;51.000;6.980;2022-10-31T17:01:52;10.95;;;3.80;;
5987;SDS011;3021;51.000;6.980;2022-10-31T17:04:17;15.40;;;4.82;;
5987;SDS011;3021;51.000;6.980;2022-10-31T17:06:43;10.60;;;4.15;;
5987;SDS011;3021;51.000;6.980;2022-10-31T17:09:08;11.60;;;4.28;;
5987;SDS011;3021;51.000;6.980;2022-10-31T17:11:33;11.73;;;4.22;;
5987;SDS011;3021;51.000;6.980;2022-10-31T17:14:00;14.20;;;4.95;;
5987;SDS011;3021;51.000;6.980;2022-10-31T17:16:25;13.95;;;4.95;;
5987;SDS011;3021;51.000;6.980;2022-10-31T17:18:51;19.83;;;5.10;;
5987;SDS011;3021;51.000;6.980;2022-10-31T17:21:25;14.00;;;4.53;;
5987;SDS011;3021;51.000;6.980;2022-10-31T17:23:52;17.33;;;5.22;;
5987;SDS011;3021;51.000;6.980;2022-10-31T17:26:17;16.92;;;4.90;;
5987;SDS011;3021;51.000;6.980;2022-10-31T17:28:43;21.75;;;5.18;;
5987;SDS011;3021;51.000;6.980;2022-10-31T17:31:22;9.43;;;4.70;;
5987;SDS011;3021;51.000;6.980;2022-10-31T17:33:53;15.93;;;4.55;;
5987;SDS011;3021;51.000;6.980;2022-10-31T17:36:22;13.50;;;4.65;;
5987;SDS011;3021;51.000;6.980;2022-10-31T17:38:47;18.10;;;5.10;;
5987;SDS011;3021;51.000;6.980;2022-10-31T17:41:13;15.70;;;4.68;;
5987;SDS011;3021;51.000;6.980;2022-10-31T17:43:38;14.00;;;4.45;;
5987;SDS011;3021;51.000;6.980;2022-10-31T17:46:04;13.38;;;5.18;;
5987;SDS011;3021;51.000;6.980;2022-10-31T17:48:30;12.90;;;4.88;;
5987;SDS011;3021;51.000;6.980;2022-10-31T17:51:04;10.75;;;4.47;;
5987;SDS011;3021;51.000;6.980;2022-10-31T17:53:31;13.30;;;4.68;;
5987;SDS011;3021;51.000;6.980;2022-10-31T17:55:59;14.15;;;4.38;;